Time;durP1;ratioP1;P1;durP2;ratioP2;P2;SDS_P1;SDS_P2;PMS_P1;PMS_P2;Temp;Humidity;BMP_temperature;BMP_pressure;BME280_temperature;BME280_humidity;BME280_pressure;Samples;Min_cycle;Max_cycle;Signal;HPM_P1;HPM_P2
2023/02/27 00:01:16;;;;;;;0.63;0.40;;;;;;;;;;5057322;28;20033;-52
2023/02/27 00:03:42;;;;;;;0.70;0.37;;;;;;;;;;5057503;28;20036;-55
2023/02/27 00:06:08;;;;;;;1.33;1.13;;;;;;;;;;5057821;28;20033;-52
2023/02/27 00:08:34;;;;;;;0.67;0.40;;;;;;;;;;5057639;28;20032;-51
2023/02/27 00:11:00;;;;;;;0.60;0.40;;;;;;;;;;5057379;28;20033;-53
2023/02/27 00:13:26;;;;;;;1.63;0.53;;;;;;;;;;5057656;28;20051;-55
2023/02/27 00:15:55;;;;;;;1.07;0.60;;;;;;;;;;5057540;28;20056;-52
2023/02/27 00:18:20;;;;;;;0.77;0.47;;;;;;;;;;5057092;28;20430;-54
2023/02/27 00:20:47;;;;;;;0.30;0.20;;;;;;;;;;5057226;28;20029;-53
2023/02/27 00:23:14;;;;;;;0.83;0.70;;;;;;;;;;5056783;28;20482;-55
2023/02/27 00:25:41;;;;;;;1.53;0.90;;;;;;;;;;5057642;28;20086;-54
2023/02/27 00:28:07;;;;;;;0.67;0.67;;;;;;;;;;5057003;28;20029;-53
2023/02/27 00:30:33;;;;;;;0.30;0.23;;;;;;;;;;5057291;28;20051;-55
2023/02/27 00:32:59;;;;;;;1.20;1.00;;;;;;;;;;5055794;28;20031;-52
2023/02/27 00:35:25;;;;;;;2.13;0.60;;;;;;;;;;5056917;28;20334;-54
2023/02/27 00:37:51;;;;;;;0.50;0.30;;;;;;;;;;5057128;28;20032;-54
2023/02/27 00:40:17;;;;;;;0.50;0.30;;;;;;;;;;5056727;28;20037;-55
2023/02/27 00:42:45;;;;;;;0.40;0.30;;;;;;;;;;5056742;28;20029;-52
2023/02/27 00:45:11;;;;;;;1.60;1.13;;;;;;;;;;5057281;28;20051;-53
2023/02/27 00:47:37;;;;;;;0.60;0.40;;;;;;;;;;5056762;28;20443;-55
2023/02/27 00:50:03;;;;;;;0.33;0.30;;;;;;;;;;5056614;28;20112;-53
2023/02/27 00:52:29;;;;;;;0.60;0.50;;;;;;;;;;5057051;28;20442;-52
2023/02/27 00:54:55;;;;;;;1.20;0.67;;;;;;;;;;5057185;28;20086;-55
2023/02/27 00:57:21;;;;;;;0.67;0.60;;;;;;;;;;5056210;28;20036;-53
2023/02/27 00:59:47;;;;;;;0.83;0.70;;;;;;;;;;5056477;28;20029;-55
2023/02/27 01:02:13;;;;;;;0.43;0.37;;;;;;;;;;5055030;28;20033;-55
2023/02/27 01:04:39;;;;;;;0.70;0.20;;;;;;;;;;5056815;28;20028;-54
2023/02/27 01:07:05;;;;;;;1.23;0.63;;;;;;;;;;5056359;28;20025;-51
2023/02/27 01:09:31;;;;;;;7.73;0.97;;;;;;;;;;5056599;28;20025;-52
2023/02/27 01:11:57;;;;;;;0.67;0.50;;;;;;;;;;5056262;28;20059;-53
2023/02/27 01:14:23;;;;;;;0.50;0.40;;;;;;;;;;5056057;28;20045;-50
2023/02/27 01:16:49;;;;;;;1.80;0.97;;;;;;;;;;5056186;28;20478;-53
2023/02/27 01:19:15;;;;;;;1.17;0.87;;;;;;;;;;5056425;28;20025;-53
2023/02/27 01:21:41;;;;;;;1.93;0.60;;;;;;;;;;5055883;28;20195;-55
2023/02/27 01:24:08;;;;;;;0.67;0.43;;;;;;;;;;5056047;28;20032;-54
2023/02/27 01:26:34;;;;;;;0.60;0.33;;;;;;;;;;5056569;28;20025;-53
2023/02/27 01:29:00;;;;;;;0.20;0.10;;;;;;;;;;5055973;28;20052;-53
2023/02/27 01:31:25;;;;;;;0.57;0.57;;;;;;;;;;5056210;28;20060;-53
2023/02/27 01:33:51;;;;;;;0.70;0.37;;;;;;;;;;5055656;28;20029;-50
2023/02/27 01:36:17;;;;;;;4.70;1.67;;;;;;;;;;5056057;28;20021;-51
2023/02/27 01:38:43;;;;;;;1.03;0.53;;;;;;;;;;5055753;28;20025;-53
2023/02/27 01:41:09;;;;;;;1.87;1.03;;;;;;;;;;5055714;28;20459;-50
2023/02/27 01:43:53;;;;;;;1.90;0.80;;;;;;;;;;5055722;28;20052;-53
2023/02/27 01:46:19;;;;;;;0.43;0.40;;;;;;;;;;5055765;28;20025;-50
2023/02/27 01:48:45;;;;;;;0.87;0.60;;;;;;;;;;5056129;28;20461;-52
2023/02/27 01:51:13;;;;;;;1.17;0.87;;;;;;;;;;5055567;28;20103;-55
2023/02/27 01:53:40;;;;;;;1.97;1.40;;;;;;;;;;5055729;28;20513;-54
2023/02/27 01:56:12;;;;;;;2.43;0.97;;;;;;;;;;5056022;28;20371;-53
2023/02/27 01:58:38;;;;;;;0.33;0.27;;;;;;;;;;5055423;28;20025;-53
2023/02/27 02:01:04;;;;;;;1.13;0.73;;;;;;;;;;5055124;28;20060;-55
2023/02/27 02:03:36;;;;;;;4.07;0.73;;;;;;;;;;5055623;28;20017;-53
2023/02/27 02:06:04;;;;;;;2.77;1.57;;;;;;;;;;5054933;28;20482;-55
2023/02/27 02:08:32;;;;;;;1.90;0.93;;;;;;;;;;5055966;28;20029;-55
2023/02/27 02:10:58;;;;;;;0.80;0.57;;;;;;;;;;5055207;28;20455;-51
2023/02/27 02:13:24;;;;;;;0.63;0.33;;;;;;;;;;5054996;28;20045;-55
2023/02/27 02:15:58;;;;;;;1.10;0.80;;;;;;;;;;5055052;28;20033;-53
2023/02/27 02:18:30;;;;;;;2.37;2.17;;;;;;;;;;5055645;28;20092;-52
2023/02/27 02:21:14;;;;;;;1.23;0.73;;;;;;;;;;5054806;28;20061;-50
2023/02/27 02:23:43;;;;;;;0.70;0.60;;;;;;;;;;5054942;28;20056;-52
2023/02/27 02:26:27;;;;;;;1.63;0.93;;;;;;;;;;5054565;28;20486;-54
2023/02/27 02:29:05;;;;;;;1.00;0.93;;;;;;;;;;5055137;28;20036;-54
2023/02/27 02:31:50;;;;;;;2.03;0.97;;;;;;;;;;5054774;28;20036;-52
2023/02/27 02:34:19;;;;;;;0.10;0.10;;;;;;;;;;5055007;28;20025;-53
2023/02/27 02:36:54;;;;;;;1.57;1.00;;;;;;;;;;5055205;28;20405;-52
2023/02/27 02:39:38;;;;;;;0.80;0.50;;;;;;;;;;5054909;28;20096;-51
2023/02/27 02:42:07;;;;;;;2.67;1.87;;;;;;;;;;5055056;28;20061;-55
2023/02/27 02:44:36;;;;;;;2.77;2.13;;;;;;;;;;5055122;28;20056;-51
2023/02/27 02:47:05;;;;;;;2.03;1.50;;;;;;;;;;5054743;28;20030;-50
2023/02/27 02:49:31;;;;;;;0.93;0.90;;;;;;;;;;5054304;28;20052;-54
2023/02/27 02:52:00;;;;;;;0.53;0.53;;;;;;;;;;5054266;28;20029;-53
2023/02/27 02:54:31;;;;;;;0.90;0.47;;;;;;;;;;5054184;28;20472;-52
2023/02/27 02:57:06;;;;;;;1.00;0.77;;;;;;;;;;5054590;28;20025;-53
2023/02/27 02:59:38;;;;;;;0.60;0.47;;;;;;;;;;5054365;28;20159;-52
2023/02/27 03:02:06;;;;;;;0.30;0.30;;;;;;;;;;5054172;28;20037;-56
2023/02/27 03:04:37;;;;;;;1.47;0.80;;;;;;;;;;5054519;28;20356;-54
2023/02/27 03:07:10;;;;;;;1.13;0.83;;;;;;;;;;5054498;28;20029;-53
2023/02/27 03:09:41;;;;;;;0.87;0.73;;;;;;;;;;5054421;28;20028;-54
2023/02/27 03:12:09;;;;;;;0.60;0.60;;;;;;;;;;5054078;28;20529;-54
2023/02/27 03:14:41;;;;;;;1.43;1.13;;;;;;;;;;5054287;28;20049;-55
2023/02/27 03:17:10;;;;;;;1.03;0.93;;;;;;;;;;5054590;28;20029;-54
2023/02/27 03:19:38;;;;;;;0.93;0.67;;;;;;;;;;5053502;28;20438;-54
2023/02/27 03:22:06;;;;;;;2.00;0.77;;;;;;;;;;5053866;28;20052;-55
2023/02/27 03:24:39;;;;;;;1.77;1.37;;;;;;;;;;5053629;28;20025;-52
2023/02/27 03:27:06;;;;;;;0.93;0.77;;;;;;;;;;5053535;28;20057;-55
2023/02/27 03:29:40;;;;;;;1.53;0.67;;;;;;;;;;5053819;28;20029;-52
2023/02/27 03:32:15;;;;;;;0.67;0.47;;;;;;;;;;5053805;28;20379;-55
2023/02/27 03:34:42;;;;;;;1.30;1.13;;;;;;;;;;5054388;28;20036;-54
2023/02/27 03:37:20;;;;;;;11.13;1.03;;;;;;;;;;5053652;28;20025;-50
2023/02/27 03:39:48;;;;;;;0.63;0.47;;;;;;;;;;5053649;28;20021;-51
2023/02/27 03:42:28;;;;;;;1.87;1.03;;;;;;;;;;5053332;28;20033;-52
2023/02/27 03:44:57;;;;;;;4.85;1.63;;;;;;;;;;5054187;28;20025;-53
2023/02/27 03:47:23;;;;;;;1.60;0.97;;;;;;;;;;5054095;28;20025;-50
2023/02/27 03:49:50;;;;;;;1.13;0.93;;;;;;;;;;5053830;28;20063;-54
2023/02/27 03:52:16;;;;;;;1.00;0.90;;;;;;;;;;5053552;28;20029;-51
2023/02/27 03:54:47;;;;;;;4.30;1.30;;;;;;;;;;5053160;28;20029;-52
2023/02/27 03:57:14;;;;;;;0.75;0.40;;;;;;;;;;5054131;28;20036;-53
2023/02/27 03:59:40;;;;;;;0.73;0.63;;;;;;;;;;5054008;28;20021;-54
2023/02/27 04:02:06;;;;;;;1.17;0.93;;;;;;;;;;5053156;28;20044;-51
2023/02/27 04:04:32;;;;;;;2.07;1.83;;;;;;;;;;5053503;28;20467;-49
2023/02/27 04:07:21;;;;;;;2.53;1.47;;;;;;;;;;5053430;28;20027;-52
2023/02/27 04:09:56;;;;;;;0.90;0.53;;;;;;;;;;5054547;28;20381;-52
2023/02/27 04:12:31;;;;;;;0.90;0.60;;;;;;;;;;5053395;28;20044;-49
2023/02/27 04:15:06;;;;;;;1.53;0.70;;;;;;;;;;5053919;28;20037;-51
2023/02/27 04:17:34;;;;;;;1.40;1.13;;;;;;;;;;5053862;28;20028;-53
2023/02/27 04:20:19;;;;;;;0.60;0.47;;;;;;;;;;5053885;28;20025;-53
2023/02/27 04:22:54;;;;;;;3.83;1.93;;;;;;;;;;5053112;28;20033;-54
2023/02/27 04:25:43;;;;;;;3.07;2.83;;;;;;;;;;5053612;28;20033;-53
2023/02/27 04:28:17;;;;;;;3.83;1.73;;;;;;;;;;5049841;28;20325;-52
2023/02/27 04:30:55;;;;;;;6.10;2.80;;;;;;;;;;5053209;28;20033;-51
2023/02/27 04:33:40;;;;;;;0.63;0.50;;;;;;;;;;5053835;28;20029;-50
2023/02/27 04:36:32;;;;;;;3.60;0.63;;;;;;;;;;5053464;28;20043;-52
2023/02/27 04:39:08;;;;;;;1.93;1.83;;;;;;;;;;5056370;28;20057;-53
2023/02/27 04:41:34;;;;;;;1.27;0.80;;;;;;;;;;5056802;28;20083;-49
2023/02/27 04:44:01;;;;;;;1.13;0.97;;;;;;;;;;5056855;28;20378;-53
2023/02/27 04:46:28;;;;;;;5.93;0.77;;;;;;;;;;5056914;28;20029;-54
2023/02/27 04:49:03;;;;;;;3.00;2.10;;;;;;;;;;5057013;28;20025;-52
2023/02/27 04:51:37;;;;;;;1.70;0.73;;;;;;;;;;5056960;28;20029;-51
2023/02/27 04:54:12;;;;;;;1.27;1.10;;;;;;;;;;5056665;28;20028;-54
2023/02/27 04:56:41;;;;;;;2.37;1.57;;;;;;;;;;5057215;28;20028;-49
2023/02/27 04:59:15;;;;;;;2.30;1.23;;;;;;;;;;5056620;28;20083;-52
2023/02/27 05:01:46;;;;;;;1.33;0.57;;;;;;;;;;5056810;28;20506;-54
2023/02/27 05:04:13;;;;;;;1.73;1.08;;;;;;;;;;5056766;28;20029;-51
2023/02/27 05:06:42;;;;;;;1.50;1.23;;;;;;;;;;5057115;28;20025;-53
2023/02/27 05:09:11;;;;;;;2.90;2.23;;;;;;;;;;5056403;28;20025;-55
2023/02/27 05:11:47;;;;;;;1.00;0.77;;;;;;;;;;5056297;28;20418;-52
2023/02/27 05:14:17;;;;;;;0.73;0.40;;;;;;;;;;5056389;28;20471;-50
2023/02/27 05:16:55;;;;;;;0.73;0.38;;;;;;;;;;5056854;28;20025;-54
2023/02/27 05:19:22;;;;;;;2.03;1.20;;;;;;;;;;5056837;28;20021;-53
2023/02/27 05:21:55;;;;;;;2.87;1.20;;;;;;;;;;5055822;28;20037;-51
2023/02/27 05:24:47;;;;;;;1.03;0.50;;;;;;;;;;5056149;28;20055;-52
2023/02/27 05:27:29;;;;;;;2.20;1.80;;;;;;;;;;5047397;28;20029;-54
2023/02/27 05:30:01;;;;;;;1.00;0.80;;;;;;;;;;5056573;28;20036;-54
2023/02/27 05:32:30;;;;;;;1.03;0.63;;;;;;;;;;5055972;28;20374;-54
2023/02/27 05:34:56;;;;;;;1.63;1.37;;;;;;;;;;5056431;28;20029;-51
2023/02/27 05:37:29;;;;;;;2.93;1.40;;;;;;;;;;5055833;28;20090;-53
2023/02/27 05:39:55;;;;;;;1.43;1.07;;;;;;;;;;5055762;28;20355;-53
2023/02/27 05:42:36;;;;;;;6.67;1.57;;;;;;;;;;5056414;28;20044;-48
2023/02/27 05:45:14;;;;;;;2.50;1.37;;;;;;;;;;5054989;28;20414;-54
2023/02/27 05:47:43;;;;;;;1.93;1.40;;;;;;;;;;5055201;28;20121;-54
2023/02/27 05:50:11;;;;;;;0.97;0.73;;;;;;;;;;5055124;28;20079;-50
2023/02/27 05:52:37;;;;;;;0.70;0.57;;;;;;;;;;5056249;28;20031;-52
2023/02/27 05:55:16;;;;;;;0.70;0.50;;;;;;;;;;5056368;28;20439;-52
2023/02/27 05:58:01;;;;;;;3.83;2.30;;;;;;;;;;5055702;28;20059;-52
2023/02/27 06:00:33;;;;;;;1.20;0.83;;;;;;;;;;5055364;28;20040;-53
2023/02/27 06:02:59;;;;;;;1.93;1.03;;;;;;;;;;5055921;28;20029;-51
2023/02/27 06:05:25;;;;;;;1.03;0.67;;;;;;;;;;5055693;28;20471;-56
2023/02/27 06:07:51;;;;;;;1.57;1.47;;;;;;;;;;5055289;28;20029;-53
2023/02/27 06:10:19;;;;;;;1.13;0.80;;;;;;;;;;5055438;28;20031;-54
2023/02/27 06:12:45;;;;;;;2.83;1.93;;;;;;;;;;5055485;28;20025;-51
2023/02/27 06:15:11;;;;;;;4.10;1.90;;;;;;;;;;5055038;28;20463;-51
2023/02/27 06:17:38;;;;;;;2.37;1.73;;;;;;;;;;5054788;28;20025;-54
2023/02/27 06:20:05;;;;;;;4.23;1.63;;;;;;;;;;5054673;28;20029;-54
2023/02/27 06:22:31;;;;;;;1.97;1.27;;;;;;;;;;5054579;28;20460;-51
2023/02/27 06:24:57;;;;;;;0.47;0.47;;;;;;;;;;5055497;28;20057;-54
2023/02/27 06:27:25;;;;;;;2.27;1.80;;;;;;;;;;5054901;28;20024;-52
2023/02/27 06:29:51;;;;;;;2.03;1.77;;;;;;;;;;5054945;28;20117;-53
2023/02/27 06:32:17;;;;;;;0.83;0.73;;;;;;;;;;5054973;28;20112;-54
2023/02/27 06:34:43;;;;;;;1.93;1.27;;;;;;;;;;5055208;28;20078;-52
2023/02/27 06:37:09;;;;;;;4.93;1.23;;;;;;;;;;5054523;28;20035;-52
2023/02/27 06:39:35;;;;;;;1.73;1.20;;;;;;;;;;5054421;28;20371;-51
2023/02/27 06:42:01;;;;;;;1.53;1.10;;;;;;;;;;5054532;28;20031;-55
2023/02/27 06:44:28;;;;;;;2.63;1.87;;;;;;;;;;5054853;28;20025;-51
2023/02/27 06:46:54;;;;;;;1.90;1.50;;;;;;;;;;5055314;28;20032;-52
2023/02/27 06:49:20;;;;;;;2.93;1.80;;;;;;;;;;5054451;28;20522;-49
2023/02/27 06:51:46;;;;;;;8.53;2.13;;;;;;;;;;5054314;28;20029;-49
2023/02/27 06:54:12;;;;;;;2.23;1.63;;;;;;;;;;5054093;28;20059;-48
2023/02/27 06:56:38;;;;;;;1.67;1.50;;;;;;;;;;5054663;28;20371;-48
2023/02/27 06:59:04;;;;;;;1.63;1.30;;;;;;;;;;5053948;28;20029;-48
2023/02/27 07:01:30;;;;;;;1.90;1.70;;;;;;;;;;5054004;28;20033;-48
2023/02/27 07:03:56;;;;;;;3.27;1.17;;;;;;;;;;5054055;28;20080;-48
2023/02/27 07:06:22;;;;;;;1.50;1.40;;;;;;;;;;5053594;28;20475;-50
2023/02/27 07:08:48;;;;;;;4.00;2.03;;;;;;;;;;5053808;28;20040;-52
2023/02/27 07:11:14;;;;;;;2.40;1.43;;;;;;;;;;5054352;28;20033;-54
2023/02/27 07:13:40;;;;;;;2.27;1.77;;;;;;;;;;5053136;28;20044;-54
2023/02/27 07:16:06;;;;;;;1.90;1.60;;;;;;;;;;5053688;28;20371;-49
2023/02/27 07:18:32;;;;;;;1.63;1.17;;;;;;;;;;5053469;28;20064;-48
2023/02/27 07:20:58;;;;;;;2.43;1.87;;;;;;;;;;5053646;28;20065;-51
2023/02/27 07:23:24;;;;;;;2.27;1.90;;;;;;;;;;5053556;28;20112;-49
2023/02/27 07:25:50;;;;;;;3.70;2.00;;;;;;;;;;5054098;28;20447;-52
2023/02/27 07:28:16;;;;;;;2.97;1.97;;;;;;;;;;5053121;28;20036;-49
2023/02/27 07:30:42;;;;;;;1.83;1.00;;;;;;;;;;5053546;28;20379;-49
2023/02/27 07:33:08;;;;;;;1.10;0.70;;;;;;;;;;5053394;28;20025;-49
2023/02/27 07:35:34;;;;;;;2.50;2.00;;;;;;;;;;5054331;28;20028;-49
2023/02/27 07:38:00;;;;;;;2.40;1.57;;;;;;;;;;5053546;28;20029;-49
2023/02/27 07:40:26;;;;;;;1.67;1.40;;;;;;;;;;5053372;28;20040;-51
2023/02/27 07:42:52;;;;;;;2.17;1.57;;;;;;;;;;5053421;28;20084;-50
2023/02/27 07:45:18;;;;;;;5.23;1.83;;;;;;;;;;5053530;28;20036;-53
2023/02/27 07:47:44;;;;;;;1.40;1.27;;;;;;;;;;5053873;28;20033;-53
2023/02/27 07:50:12;;;;;;;4.77;1.90;;;;;;;;;;5054079;28;20355;-50
2023/02/27 07:52:39;;;;;;;2.53;1.50;;;;;;;;;;5054061;28;20112;-49
2023/02/27 07:55:05;;;;;;;1.37;1.27;;;;;;;;;;5053972;28;20032;-53
2023/02/27 07:57:31;;;;;;;4.47;1.97;;;;;;;;;;5053446;28;20029;-53
2023/02/27 07:59:57;;;;;;;4.47;1.83;;;;;;;;;;5053538;28;20025;-48
2023/02/27 08:02:23;;;;;;;2.50;1.67;;;;;;;;;;5053337;28;20039;-52
2023/02/27 08:04:51;;;;;;;4.87;1.70;;;;;;;;;;5053548;28;20029;-50
2023/02/27 08:07:17;;;;;;;1.50;0.97;;;;;;;;;;5053261;28;20033;-51
2023/02/27 08:09:43;;;;;;;2.37;1.90;;;;;;;;;;5053436;28;20032;-51
2023/02/27 08:12:09;;;;;;;2.00;1.20;;;;;;;;;;5055624;28;20036;-51
2023/02/27 08:14:35;;;;;;;2.93;1.20;;;;;;;;;;5058297;28;20171;-48
2023/02/27 08:17:01;;;;;;;2.37;1.73;;;;;;;;;;5057220;28;20017;-51
2023/02/27 08:19:27;;;;;;;3.40;1.60;;;;;;;;;;5058070;28;20036;-51
2023/02/27 08:21:53;;;;;;;4.40;2.10;;;;;;;;;;5057132;28;20043;-47
2023/02/27 08:24:19;;;;;;;1.00;0.60;;;;;;;;;;5057784;28;20411;-48
2023/02/27 08:26:45;;;;;;;2.30;1.97;;;;;;;;;;5057778;28;20033;-49
2023/02/27 08:29:11;;;;;;;1.87;1.33;;;;;;;;;;5056834;28;20070;-51
2023/02/27 08:31:37;;;;;;;2.13;1.73;;;;;;;;;;5057396;28;20036;-48
2023/02/27 08:34:03;;;;;;;2.27;1.37;;;;;;;;;;5057050;28;20028;-53
2023/02/27 08:36:29;;;;;;;2.83;1.20;;;;;;;;;;5057674;28;20029;-52
2023/02/27 08:38:55;;;;;;;5.77;2.33;;;;;;;;;;5057468;28;20108;-50
2023/02/27 08:41:21;;;;;;;2.37;1.33;;;;;;;;;;5056774;28;20459;-51
2023/02/27 08:43:47;;;;;;;1.57;1.37;;;;;;;;;;5056855;28;20033;-50
2023/02/27 08:46:13;;;;;;;2.57;1.50;;;;;;;;;;5057201;28;20036;-51
2023/02/27 08:48:41;;;;;;;1.37;0.87;;;;;;;;;;5056702;28;20114;-50
2023/02/27 08:51:07;;;;;;;1.17;0.83;;;;;;;;;;5057142;28;20033;-48
2023/02/27 08:53:33;;;;;;;2.53;1.70;;;;;;;;;;5056665;28;20029;-53
2023/02/27 08:55:59;;;;;;;0.77;0.77;;;;;;;;;;5057254;28;20025;-53
2023/02/27 08:58:25;;;;;;;2.83;1.10;;;;;;;;;;5056021;28;20056;-52
2023/02/27 09:00:51;;;;;;;1.10;0.90;;;;;;;;;;5056799;28;20451;-49
2023/02/27 09:03:17;;;;;;;1.20;0.80;;;;;;;;;;5056973;28;20032;-50
2023/02/27 09:05:43;;;;;;;0.90;0.73;;;;;;;;;;5056776;28;20443;-54
2023/02/27 09:08:09;;;;;;;1.20;0.87;;;;;;;;;;5056760;28;20036;-53
2023/02/27 09:10:35;;;;;;;1.17;1.00;;;;;;;;;;5056190;28;20029;-55
2023/02/27 09:13:01;;;;;;;1.60;1.10;;;;;;;;;;5056726;28;20122;-54
2023/02/27 09:15:27;;;;;;;2.83;1.43;;;;;;;;;;5056507;28;20021;-51
2023/02/27 09:17:59;;;;;;;2.67;1.30;;;;;;;;;;5055939;28;20025;-53
2023/02/27 09:20:24;;;;;;;1.57;1.00;;;;;;;;;;5056112;28;20140;-49
2023/02/27 09:22:50;;;;;;;3.80;1.83;;;;;;;;;;5055086;28;20028;-50
2023/02/27 09:25:16;;;;;;;3.77;1.40;;;;;;;;;;5056178;28;20108;-50
2023/02/27 09:27:42;;;;;;;0.73;0.47;;;;;;;;;;5055602;28;20115;-49
2023/02/27 09:30:09;;;;;;;2.93;2.13;;;;;;;;;;5056452;28;20051;-51
2023/02/27 09:32:35;;;;;;;1.43;1.00;;;;;;;;;;5056240;28;20150;-50
2023/02/27 09:35:00;;;;;;;1.07;0.80;;;;;;;;;;5055564;28;20064;-50
2023/02/27 09:37:26;;;;;;;1.20;0.80;;;;;;;;;;5055880;28;20025;-53
2023/02/27 09:39:52;;;;;;;2.40;1.37;;;;;;;;;;5055533;28;20029;-49
2023/02/27 09:42:25;;;;;;;0.77;0.57;;;;;;;;;;5055624;28;20033;-50
2023/02/27 09:45:02;;;;;;;0.67;0.37;;;;;;;;;;5055869;28;20091;-49
2023/02/27 09:47:35;;;;;;;0.60;0.60;;;;;;;;;;5056346;28;20037;-52
2023/02/27 09:50:04;;;;;;;4.53;1.40;;;;;;;;;;5055677;28;20029;-50
2023/02/27 09:52:31;;;;;;;1.73;1.00;;;;;;;;;;5055668;28;20036;-51
2023/02/27 09:54:57;;;;;;;0.53;0.33;;;;;;;;;;5055958;28;20024;-51
2023/02/27 09:57:24;;;;;;;2.40;1.53;;;;;;;;;;5056039;28;20410;-49
2023/02/27 09:59:52;;;;;;;1.27;0.83;;;;;;;;;;5055219;28;20529;-51
2023/02/27 10:02:18;;;;;;;0.63;0.53;;;;;;;;;;5055413;28;20494;-52
2023/02/27 10:04:58;;;;;;;0.57;0.50;;;;;;;;;;5055720;28;20100;-49
2023/02/27 10:07:31;;;;;;;1.20;1.00;;;;;;;;;;5054786;28;20148;-50
2023/02/27 10:10:12;;;;;;;1.47;0.80;;;;;;;;;;5055702;28;20100;-50
2023/02/27 10:12:38;;;;;;;3.30;0.90;;;;;;;;;;5055233;28;20032;-50
2023/02/27 10:15:10;;;;;;;2.63;0.87;;;;;;;;;;5055597;28;20021;-50
2023/02/27 10:17:39;;;;;;;3.17;1.60;;;;;;;;;;5055227;28;20052;-53
2023/02/27 10:20:13;;;;;;;1.13;0.82;;;;;;;;;;5055419;28;20417;-52
2023/02/27 10:22:42;;;;;;;1.27;1.07;;;;;;;;;;5055197;28;20033;-52
2023/02/27 10:25:14;;;;;;;2.37;1.27;;;;;;;;;;5055593;28;20033;-51
2023/02/27 10:27:41;;;;;;;1.83;0.97;;;;;;;;;;5055186;28;20406;-51
2023/02/27 10:30:18;;;;;;;0.97;0.67;;;;;;;;;;5055654;28;20032;-52
2023/02/27 10:32:46;;;;;;;2.47;0.70;;;;;;;;;;5054997;28;20024;-52
2023/02/27 10:35:21;;;;;;;1.33;0.77;;;;;;;;;;5054211;28;20474;-50
2023/02/27 10:37:53;;;;;;;1.37;0.97;;;;;;;;;;5054773;28;20375;-54
2023/02/27 10:40:19;;;;;;;1.00;0.90;;;;;;;;;;5055287;28;20033;-50
2023/02/27 10:42:45;;;;;;;0.70;0.67;;;;;;;;;;5055088;28;20112;-54
2023/02/27 10:45:14;;;;;;;1.60;0.80;;;;;;;;;;5054800;28;20029;-55
2023/02/27 10:47:41;;;;;;;1.27;0.73;;;;;;;;;;5054396;28;20091;-52
2023/02/27 10:50:20;;;;;;;1.40;0.83;;;;;;;;;;5054334;28;20029;-55
2023/02/27 10:52:51;;;;;;;0.98;0.45;;;;;;;;;;5054855;28;20025;-54
2023/02/27 10:55:28;;;;;;;2.72;1.23;;;;;;;;;;5054804;28;20040;-52
2023/02/27 10:57:55;;;;;;;1.70;0.80;;;;;;;;;;5054591;28;20040;-49
2023/02/27 11:00:23;;;;;;;1.73;0.80;;;;;;;;;;5054254;28;20021;-51
2023/02/27 11:02:51;;;;;;;1.50;1.40;;;;;;;;;;5054177;28;20068;-52
2023/02/27 11:05:31;;;;;;;2.37;1.57;;;;;;;;;;5054242;28;20032;-54
2023/02/27 11:08:10;;;;;;;1.02;0.57;;;;;;;;;;5054010;28;20024;-51
2023/02/27 11:10:36;;;;;;;0.67;0.30;;;;;;;;;;5054160;28;20029;-49
2023/02/27 11:13:03;;;;;;;1.10;0.67;;;;;;;;;;5053927;28;20041;-50
2023/02/27 11:15:38;;;;;;;4.60;1.40;;;;;;;;;;5054066;28;20032;-50
2023/02/27 11:18:24;;;;;;;1.97;1.03;;;;;;;;;;5054863;28;20017;-48
2023/02/27 11:20:50;;;;;;;1.50;1.40;;;;;;;;;;5053768;28;20039;-49
2023/02/27 11:23:18;;;;;;;0.70;0.50;;;;;;;;;;5053960;28;20028;-49
2023/02/27 11:25:44;;;;;;;1.03;0.90;;;;;;;;;;5053627;28;20497;-54
2023/02/27 11:28:22;;;;;;;1.07;0.80;;;;;;;;;;5053881;28;20421;-51
2023/02/27 11:31:02;;;;;;;2.13;0.93;;;;;;;;;;5053804;28;20108;-51
2023/02/27 11:33:29;;;;;;;0.70;0.40;;;;;;;;;;5053453;28;20490;-50
2023/02/27 11:35:55;;;;;;;1.10;0.87;;;;;;;;;;5054247;28;20402;-52
2023/02/27 11:38:26;;;;;;;2.97;1.10;;;;;;;;;;5053432;28;20025;-54
2023/02/27 11:40:54;;;;;;;1.00;0.68;;;;;;;;;;5053995;28;20029;-51
2023/02/27 11:43:22;;;;;;;1.33;1.20;;;;;;;;;;5054315;28;20482;-52
2023/02/27 11:45:53;;;;;;;0.93;0.67;;;;;;;;;;5053787;28;20059;-51
2023/02/27 11:48:22;;;;;;;1.67;1.00;;;;;;;;;;5053522;28;20060;-53
2023/02/27 11:51:01;;;;;;;2.23;1.23;;;;;;;;;;5053980;28;20025;-51
2023/02/27 11:53:39;;;;;;;2.77;1.20;;;;;;;;;;5053821;28;20036;-51
2023/02/27 11:56:08;;;;;;;1.00;0.70;;;;;;;;;;5053923;28;20051;-54
2023/02/27 11:58:41;;;;;;;1.13;0.60;;;;;;;;;;5053676;28;20432;-56
2023/02/27 12:01:09;;;;;;;0.83;0.40;;;;;;;;;;5054099;28;20071;-51
2023/02/27 12:03:50;;;;;;;1.83;1.30;;;;;;;;;;5053592;28;20536;-52
2023/02/27 12:06:18;;;;;;;1.50;0.97;;;;;;;;;;5053555;28;20025;-52
2023/02/27 12:08:50;;;;;;;1.40;0.90;;;;;;;;;;5054175;28;20332;-53
2023/02/27 12:11:26;;;;;;;1.73;1.13;;;;;;;;;;5053796;28;20087;-54
2023/02/27 12:13:59;;;;;;;1.50;0.90;;;;;;;;;;5054229;28;20140;-51
2023/02/27 12:16:37;;;;;;;1.50;0.73;;;;;;;;;;5053436;28;20029;-54
2023/02/27 12:19:20;;;;;;;1.87;1.40;;;;;;;;;;5053426;28;20356;-50
2023/02/27 12:21:49;;;;;;;3.00;1.40;;;;;;;;;;5053241;28;20462;-50
2023/02/27 12:24:15;;;;;;;1.13;1.03;;;;;;;;;;5053251;28;20057;-53
2023/02/27 12:26:45;;;;;;;3.33;0.93;;;;;;;;;;5053258;28;20344;-56
2023/02/27 12:29:17;;;;;;;1.92;1.23;;;;;;;;;;5053332;28;20039;-54
2023/02/27 12:31:45;;;;;;;1.57;1.03;;;;;;;;;;5053586;28;20029;-51
2023/02/27 12:34:21;;;;;;;1.87;1.10;;;;;;;;;;5052987;28;20074;-53
2023/02/27 12:36:47;;;;;;;2.20;1.10;;;;;;;;;;5053629;28;20025;-52
2023/02/27 12:39:21;;;;;;;2.63;1.93;;;;;;;;;;5053027;28;20473;-56
2023/02/27 12:41:50;;;;;;;1.10;1.00;;;;;;;;;;5053133;28;20040;-57
2023/02/27 12:44:23;;;;;;;1.23;1.13;;;;;;;;;;5053069;28;20029;-54
2023/02/27 12:47:03;;;;;;;2.70;1.40;;;;;;;;;;5053153;28;20024;-55
2023/02/27 12:49:35;;;;;;;1.33;0.85;;;;;;;;;;5053481;28;20057;-57
2023/02/27 12:52:11;;;;;;;0.77;0.50;;;;;;;;;;5052660;28;20029;-55
2023/02/27 12:54:51;;;;;;;1.47;0.60;;;;;;;;;;5053038;28;20025;-52
2023/02/27 12:57:24;;;;;;;1.38;0.95;;;;;;;;;;5053743;28;20025;-55
2023/02/27 13:00:07;;;;;;;3.00;1.47;;;;;;;;;;5056491;28;20017;-56
2023/02/27 13:02:53;;;;;;;2.30;1.37;;;;;;;;;;5057213;28;20071;-56
2023/02/27 13:05:38;;;;;;;1.77;0.67;;;;;;;;;;5057012;28;20040;-54
2023/02/27 13:08:23;;;;;;;0.87;0.67;;;;;;;;;;5055125;28;20036;-55
2023/02/27 13:10:48;;;;;;;1.27;0.77;;;;;;;;;;5056370;28;20067;-49
2023/02/27 13:13:25;;;;;;;2.37;0.93;;;;;;;;;;5056664;28;20491;-55
2023/02/27 13:15:58;;;;;;;1.43;0.70;;;;;;;;;;5055984;28;20497;-54
2023/02/27 13:18:30;;;;;;;4.97;2.17;;;;;;;;;;5056433;28;20398;-56
2023/02/27 13:21:00;;;;;;;2.53;1.10;;;;;;;;;;5055944;28;20033;-56
2023/02/27 13:23:33;;;;;;;1.27;0.77;;;;;;;;;;5056580;28;20516;-55
2023/02/27 13:26:00;;;;;;;1.43;0.40;;;;;;;;;;5056393;28;20029;-55
2023/02/27 13:28:27;;;;;;;1.50;0.82;;;;;;;;;;5056010;28;20104;-56
2023/02/27 13:31:05;;;;;;;1.30;0.73;;;;;;;;;;5056390;28;20036;-55
2023/02/27 13:33:50;;;;;;;1.03;0.70;;;;;;;;;;5055545;28;20021;-54
2023/02/27 13:36:22;;;;;;;1.90;1.33;;;;;;;;;;5056000;28;20475;-55
2023/02/27 13:38:49;;;;;;;2.70;1.03;;;;;;;;;;5056594;28;20021;-56
2023/02/27 13:41:26;;;;;;;2.30;1.20;;;;;;;;;;5055726;28;20115;-54
2023/02/27 13:43:55;;;;;;;1.83;1.43;;;;;;;;;;5056026;28;20074;-55
2023/02/27 13:46:22;;;;;;;0.90;0.67;;;;;;;;;;5056238;28;20025;-52
2023/02/27 13:48:53;;;;;;;0.77;0.60;;;;;;;;;;5055416;28;20028;-55
2023/02/27 13:51:34;;;;;;;2.77;0.57;;;;;;;;;;5055762;28;20490;-55
2023/02/27 13:54:08;;;;;;;2.73;0.90;;;;;;;;;;5055539;28;20074;-56
2023/02/27 13:56:34;;;;;;;1.27;0.87;;;;;;;;;;5056052;28;20024;-50
2023/02/27 13:59:18;;;;;;;1.20;0.63;;;;;;;;;;5055057;28;20052;-55
2023/02/27 14:01:50;;;;;;;2.83;1.50;;;;;;;;;;5055833;28;20056;-56
2023/02/27 14:04:18;;;;;;;1.77;0.80;;;;;;;;;;5055235;28;20028;-55
2023/02/27 14:06:45;;;;;;;0.90;0.60;;;;;;;;;;5055844;28;20028;-57
2023/02/27 14:09:12;;;;;;;2.77;1.13;;;;;;;;;;5054878;28;20029;-56
2023/02/27 14:11:38;;;;;;;1.33;0.93;;;;;;;;;;5055960;28;20032;-57
2023/02/27 14:14:06;;;;;;;2.00;1.40;;;;;;;;;;5054869;28;20132;-58
2023/02/27 14:16:38;;;;;;;1.63;1.00;;;;;;;;;;5055839;28;20056;-58
2023/02/27 14:19:34;;;;;;;2.77;1.07;;;;;;;;;;5055096;28;20025;-54
2023/02/27 14:22:23;;;;;;;2.33;1.43;;;;;;;;;;5049561;28;20467;-52
2023/02/27 14:24:53;;;;;;;3.42;2.08;;;;;;;;;;5055059;28;20128;-52
2023/02/27 14:27:19;;;;;;;1.27;0.70;;;;;;;;;;5055197;28;20033;-51
2023/02/27 14:29:46;;;;;;;0.90;0.83;;;;;;;;;;5054719;28;20025;-51
2023/02/27 14:32:17;;;;;;;5.10;2.03;;;;;;;;;;5055013;28;20033;-53
2023/02/27 14:34:43;;;;;;;0.87;0.60;;;;;;;;;;5054698;28;20017;-54
2023/02/27 14:37:16;;;;;;;1.53;0.90;;;;;;;;;;5054537;28;20021;-53
2023/02/27 14:39:42;;;;;;;1.07;0.77;;;;;;;;;;5054971;28;20390;-50
2023/02/27 14:42:11;;;;;;;2.70;0.87;;;;;;;;;;5054141;28;20493;-53
2023/02/27 14:44:42;;;;;;;1.60;1.10;;;;;;;;;;5054896;28;20035;-56
2023/02/27 14:47:14;;;;;;;1.40;0.80;;;;;;;;;;5054465;28;20029;-56
2023/02/27 14:49:39;;;;;;;1.00;0.73;;;;;;;;;;5054835;28;20451;-56
2023/02/27 14:52:22;;;;;;;1.60;0.70;;;;;;;;;;5054490;28;20040;-51
2023/02/27 14:54:49;;;;;;;2.83;1.10;;;;;;;;;;5054405;28;20033;-56
2023/02/27 14:57:19;;;;;;;2.30;1.30;;;;;;;;;;5054529;28;20025;-52
2023/02/27 14:59:45;;;;;;;;;;;;;;;;;;5054601;28;20032;-52